Time;durP1;ratioP1;P1;durP2;ratioP2;P2;SDS_P1;SDS_P2;PMS_P1;PMS_P2;Temp;Humidity;BMP_temperature;BMP_pressure;BME280_temperature;BME280_humidity;BME280_pressure;Samples;Min_cycle;Max_cycle;Signal;HPM_P1;HPM_P2
2022/06/29 00:00:26;;;;;;;1.63;1.53;;;28.50;42.00;;;;;;5059040;28;20453;-83
2022/06/29 00:02:54;;;;;;;2.10;1.33;;;28.50;42.10;;;;;;5060470;28;20466;-82
2022/06/29 00:05:23;;;;;;;1.43;1.40;;;28.50;42.00;;;;;;5061318;28;20449;-83
2022/06/29 00:07:51;;;;;;;1.77;1.67;;;28.50;42.20;;;;;;5060140;28;20456;-83
2022/06/29 00:10:19;;;;;;;1.83;1.53;;;28.50;42.10;;;;;;5052398;28;20439;-82
2022/06/29 00:12:49;;;;;;;1.50;1.40;;;28.40;42.00;;;;;;5039262;28;20506;-83
2022/06/29 00:15:17;;;;;;;3.47;1.70;;;28.50;42.10;;;;;;5038944;28;20435;-83
2022/06/29 00:17:45;;;;;;;3.43;1.70;;;28.40;42.20;;;;;;5039412;28;20479;-83
2022/06/29 00:20:13;;;;;;;2.07;1.33;;;28.40;42.10;;;;;;5039046;28;20449;-83
2022/06/29 00:22:41;;;;;;;1.47;1.40;;;28.40;42.10;;;;;;5039035;28;20494;-83
2022/06/29 00:25:09;;;;;;;1.97;1.87;;;28.40;42.20;;;;;;5038863;28;20455;-83
2022/06/29 00:27:37;;;;;;;4.07;1.80;;;28.30;42.20;;;;;;5039145;28;20475;-83
2022/06/29 00:30:07;;;;;;;1.63;1.53;;;28.40;42.20;;;;;;5038527;28;20575;-83
2022/06/29 00:32:35;;;;;;;1.80;1.70;;;28.30;42.10;;;;;;5037996;28;20522;-82
2022/06/29 00:35:04;;;;;;;3.43;1.87;;;28.30;42.20;;;;;;5038175;28;20447;-83
2022/06/29 00:37:32;;;;;;;1.80;1.70;;;28.20;42.10;;;;;;5038171;28;20439;-83
2022/06/29 00:40:00;;;;;;;2.67;2.10;;;28.20;42.80;;;;;;5037835;28;20542;-83
2022/06/29 00:42:28;;;;;;;1.80;1.70;;;28.20;42.30;;;;;;5054272;28;20493;-83
2022/06/29 00:44:56;;;;;;;2.20;2.00;;;28.20;42.30;;;;;;5057682;28;20524;-83
2022/06/29 00:47:25;;;;;;;2.23;2.03;;;28.20;42.30;;;;;;5058462;28;20410;-82
2022/06/29 00:49:53;;;;;;;2.00;1.80;;;28.10;42.20;;;;;;5057198;28;20554;-82
2022/06/29 00:52:23;;;;;;;1.53;1.53;;;28.10;42.30;;;;;;5058423;28;20470;-83
2022/06/29 00:54:53;;;;;;;1.70;1.60;;;28.20;42.30;;;;;;5057818;28;20446;-83
2022/06/29 00:57:22;;;;;;;2.07;1.97;;;28.10;42.30;;;;;;5057975;28;20478;-83
2022/06/29 00:59:51;;;;;;;2.33;2.10;;;28.10;42.30;;;;;;5057723;28;20427;-82
2022/06/29 01:02:20;;;;;;;2.00;1.90;;;28.10;42.20;;;;;;5057724;28;20573;-83
2022/06/29 01:04:50;;;;;;;2.40;2.20;;;28.10;42.30;;;;;;5057820;28;20426;-82
2022/06/29 01:07:19;;;;;;;2.50;2.30;;;28.10;42.20;;;;;;5057829;28;20526;-83
2022/06/29 01:09:47;;;;;;;1.60;1.60;;;28.10;42.30;;;;;;5057452;28;20550;-83
2022/06/29 01:12:15;;;;;;;3.00;2.60;;;28.00;42.20;;;;;;5057374;28;20471;-82
2022/06/29 01:14:43;;;;;;;2.83;2.20;;;28.00;42.20;;;;;;5038806;28;20450;-82
2022/06/29 01:17:11;;;;;;;2.17;2.07;;;28.00;42.30;;;;;;5037461;28;20650;-83
2022/06/29 01:19:39;;;;;;;2.37;2.17;;;28.00;42.40;;;;;;5037637;28;20478;-83
2022/06/29 01:22:10;;;;;;;2.63;2.43;;;28.00;42.20;;;;;;5037615;28;20461;-82
2022/06/29 01:24:38;;;;;;;2.50;2.33;;;28.00;42.10;;;;;;5037570;28;20395;-83
2022/06/29 01:27:06;;;;;;;1.90;1.80;;;28.00;42.30;;;;;;5037981;28;20558;-82
2022/06/29 01:29:34;;;;;;;3.17;2.23;;;27.90;41.50;;;;;;5051674;28;20964;-82
2022/06/29 01:32:02;;;;;;;2.27;2.17;;;27.90;42.10;;;;;;5056991;28;20553;-82
2022/06/29 01:34:30;;;;;;;2.40;2.07;;;27.90;42.20;;;;;;5057783;28;20389;-83
2022/06/29 01:36:58;;;;;;;2.60;2.50;;;27.90;42.20;;;;;;5057044;28;20537;-83
2022/06/29 01:39:28;;;;;;;2.43;2.33;;;27.90;42.20;;;;;;5057515;28;20458;-82
2022/06/29 01:41:55;;;;;;;2.30;2.20;;;27.90;42.20;;;;;;5057309;28;20528;-83
2022/06/29 01:44:23;;;;;;;2.70;2.60;;;27.90;42.10;;;;;;5056757;28;20512;-82
2022/06/29 01:46:51;;;;;;;2.43;2.30;;;27.90;42.20;;;;;;5056870;28;20469;-82
2022/06/29 01:49:19;;;;;;;2.60;2.40;;;27.90;42.20;;;;;;5057189;28;20508;-83
2022/06/29 01:51:47;;;;;;;2.63;2.53;;;27.90;42.10;;;;;;5056129;28;20489;-83
2022/06/29 01:54:15;;;;;;;2.40;2.30;;;27.90;42.10;;;;;;5056927;28;20417;-83
2022/06/29 01:56:44;;;;;;;2.20;2.10;;;27.90;42.00;;;;;;5056713;28;20481;-83
2022/06/29 01:59:11;;;;;;;3.33;2.30;;;27.80;42.10;;;;;;5057106;28;20535;-83
2022/06/29 02:01:39;;;;;;;2.47;2.37;;;27.90;41.90;;;;;;5056357;28;20965;-83
2022/06/29 02:04:07;;;;;;;2.57;2.47;;;27.80;42.10;;;;;;5055374;28;20434;-79
2022/06/29 02:06:35;;;;;;;2.63;2.53;;;27.80;42.10;;;;;;5055847;28;20438;-82
2022/06/29 02:09:05;;;;;;;2.50;2.40;;;27.80;42.10;;;;;;5056184;28;20461;-83
2022/06/29 02:11:33;;;;;;;2.60;2.50;;;27.80;42.00;;;;;;5056265;28;20485;-82
2022/06/29 02:14:03;;;;;;;2.73;2.50;;;27.90;42.00;;;;;;5056007;28;20506;-82
2022/06/29 02:16:33;;;;;;;2.97;2.77;;;27.90;41.90;;;;;;5056212;28;20508;-83
2022/06/29 02:19:01;;;;;;;2.70;2.50;;;27.80;42.00;;;;;;5056053;28;20430;-82
2022/06/29 02:21:29;;;;;;;2.67;2.57;;;27.80;42.00;;;;;;5056094;28;20458;-83
2022/06/29 02:23:57;;;;;;;3.00;2.90;;;27.80;42.10;;;;;;5055727;28;20500;-82
2022/06/29 02:26:25;;;;;;;2.63;2.53;;;27.80;42.00;;;;;;5056097;28;20856;-83
2022/06/29 02:28:54;;;;;;;3.20;2.83;;;27.80;42.10;;;;;;5056573;28;20447;-82
2022/06/29 02:36:54;;;;;;;2.87;2.77;;;27.70;42.20;;;;;;5036345;28;20420;-83
2022/06/29 02:39:22;;;;;;;2.83;2.73;;;27.60;42.10;;;;;;5035737;28;20519;-82
2022/06/29 02:41:50;;;;;;;2.50;2.40;;;27.70;42.10;;;;;;5035837;28;20529;-83
2022/06/29 02:44:18;;;;;;;2.90;2.77;;;27.60;42.00;;;;;;5035837;28;20445;-82
2022/06/29 02:46:47;;;;;;;2.63;2.53;;;27.70;42.10;;;;;;5036221;28;20418;-83
2022/06/29 02:49:14;;;;;;;2.70;2.60;;;27.60;42.00;;;;;;5035851;28;20473;-82
2022/06/29 02:51:42;;;;;;;5.50;2.63;;;27.70;42.20;;;;;;5043675;28;20439;-82
2022/06/29 02:54:10;;;;;;;2.70;2.60;;;27.60;42.00;;;;;;5055880;28;20465;-82
2022/06/29 02:56:38;;;;;;;2.90;2.80;;;27.60;41.90;;;;;;5055959;28;20442;-82
2022/06/29 02:59:05;;;;;;;2.67;2.57;;;27.60;42.10;;;;;;5055758;28;20435;-82
2022/06/29 03:01:33;;;;;;;2.73;2.63;;;27.60;42.10;;;;;;5055337;28;20439;-83
2022/06/29 03:04:02;;;;;;;2.90;2.80;;;27.70;42.10;;;;;;5055671;28;20529;-83
2022/06/29 03:06:30;;;;;;;3.00;2.60;;;27.60;42.00;;;;;;5054782;28;20438;-82
2022/06/29 03:08:58;;;;;;;2.73;2.53;;;27.60;42.10;;;;;;5035977;28;20465;-82
2022/06/29 03:11:26;;;;;;;2.70;2.60;;;27.60;41.90;;;;;;5035687;28;20481;-82
2022/06/29 03:13:53;;;;;;;2.63;2.53;;;27.60;42.00;;;;;;5035434;28;20501;-82
2022/06/29 03:16:21;;;;;;;3.03;2.93;;;27.60;41.90;;;;;;5035853;28;20439;-82
2022/06/29 03:18:49;;;;;;;2.73;2.63;;;27.60;41.90;;;;;;5035369;28;20443;-83
2022/06/29 03:21:18;;;;;;;3.03;2.60;;;27.60;42.10;;;;;;5035408;28;21003;-83
2022/06/29 03:23:46;;;;;;;3.70;2.70;;;27.60;41.90;;;;;;5037824;28;20458;-82
2022/06/29 03:26:14;;;;;;;2.10;2.10;;;27.60;42.00;;;;;;5055522;28;20416;-82
2022/06/29 03:28:41;;;;;;;3.50;3.20;;;27.60;41.80;;;;;;5055561;28;20439;-82
2022/06/29 03:31:09;;;;;;;2.70;2.60;;;27.60;42.00;;;;;;5055171;28;20466;-83
2022/06/29 03:33:37;;;;;;;2.90;2.80;;;27.60;42.00;;;;;;5055635;28;20837;-83
2022/06/29 03:36:05;;;;;;;3.00;2.90;;;27.60;41.80;;;;;;5055643;28;20413;-82
2022/06/29 03:38:34;;;;;;;3.50;3.20;;;27.60;42.00;;;;;;5055324;28;20409;-82
2022/06/29 03:41:02;;;;;;;2.97;2.87;;;27.60;41.90;;;;;;5055259;28;20434;-83
2022/06/29 03:43:30;;;;;;;3.83;2.77;;;27.60;41.80;;;;;;5059065;28;20435;-82
2022/06/29 03:45:58;;;;;;;3.20;3.00;;;27.60;42.00;;;;;;5038431;28;20507;-83
2022/06/29 03:48:25;;;;;;;3.10;2.90;;;27.60;41.70;;;;;;5038990;28;20435;-82
2022/06/29 03:50:53;;;;;;;2.60;2.50;;;27.60;41.90;;;;;;5038795;28;20475;-83
2022/06/29 03:53:21;;;;;;;3.00;2.80;;;27.60;41.70;;;;;;5038879;28;20494;-82
2022/06/29 03:55:51;;;;;;;2.97;2.70;;;27.60;42.00;;;;;;5039036;28;20946;-83
2022/06/29 03:58:19;;;;;;;2.97;2.87;;;27.60;41.70;;;;;;5053282;28;20457;-82
2022/06/29 04:00:46;;;;;;;2.90;2.80;;;27.60;41.90;;;;;;5058440;28;20438;-82
2022/06/29 04:03:14;;;;;;;2.93;2.63;;;27.60;41.80;;;;;;5058417;28;20451;-83
2022/06/29 04:05:42;;;;;;;3.13;2.70;;;27.60;42.00;;;;;;5058853;28;20417;-82
2022/06/29 04:08:16;;;;;;;3.57;3.30;;;27.60;41.90;;;;;;5058180;28;20496;-83
2022/06/29 04:10:44;;;;;;;3.37;3.10;;;27.60;42.00;;;;;;5058700;28;20857;-83
2022/06/29 04:13:13;;;;;;;4.83;3.50;;;27.60;41.70;;;;;;5055666;28;20524;-83
2022/06/29 04:15:41;;;;;;;3.10;3.00;;;27.60;42.10;;;;;;5038698;28;20410;-82
2022/06/29 04:18:09;;;;;;;2.80;2.70;;;27.60;41.90;;;;;;5038239;28;20472;-82
2022/06/29 04:23:22;;;;;;;3.30;3.20;;;27.60;41.80;;;;;;5038243;28;20422;-82
2022/06/29 04:25:50;;;;;;;3.23;3.03;;;27.60;41.90;;;;;;5038122;28;20431;-83
2022/06/29 04:28:19;;;;;;;3.40;3.10;;;27.60;41.90;;;;;;5038445;28;20442;-82
2022/06/29 04:30:47;;;;;;;3.27;3.07;;;27.60;41.80;;;;;;5037492;28;20565;-82
2022/06/29 04:33:15;;;;;;;3.03;2.80;;;27.60;41.80;;;;;;5057701;28;20474;-83
2022/06/29 04:35:43;;;;;;;2.63;2.53;;;27.70;41.80;;;;;;5058583;28;20443;-83
2022/06/29 04:38:11;;;;;;;3.23;3.13;;;27.70;41.90;;;;;;5058275;28;20425;-83
2022/06/29 04:40:38;;;;;;;3.30;3.10;;;27.70;41.90;;;;;;5057768;28;20405;-82
2022/06/29 04:43:06;;;;;;;2.80;2.50;;;27.70;41.80;;;;;;5057606;28;20541;-82
2022/06/29 04:48:20;;;;;;;3.17;3.07;;;27.70;41.90;;;;;;5056849;28;20512;-82
2022/06/29 04:50:48;;;;;;;3.27;3.17;;;27.70;41.90;;;;;;5057693;28;20466;-83
2022/06/29 04:53:16;;;;;;;3.20;3.10;;;27.70;41.90;;;;;;5056997;28;20560;-82
2022/06/29 04:55:44;;;;;;;2.80;2.70;;;27.70;41.70;;;;;;5059752;28;20435;-83
2022/06/29 04:58:11;;;;;;;3.30;3.00;;;27.70;42.00;;;;;;5059906;28;20457;-82
2022/06/29 05:00:40;;;;;;;2.97;2.77;;;27.70;41.80;;;;;;5058699;28;20434;-83
2022/06/29 05:03:08;;;;;;;4.70;3.20;;;27.70;41.80;;;;;;5054567;28;20546;-83
2022/06/29 05:05:36;;;;;;;3.00;2.80;;;27.70;41.80;;;;;;5038229;28;20488;-83
2022/06/29 05:08:05;;;;;;;3.30;3.10;;;27.70;42.00;;;;;;5057397;28;20446;-83
2022/06/29 05:10:33;;;;;;;3.17;3.07;;;27.80;41.90;;;;;;5057476;28;20446;-83
2022/06/29 05:13:01;;;;;;;3.23;2.93;;;27.70;41.80;;;;;;5057474;28;20554;-82
2022/06/29 05:15:29;;;;;;;2.73;2.60;;;27.70;41.90;;;;;;5057796;28;20446;-82
2022/06/29 05:17:58;;;;;;;4.43;2.80;;;27.70;42.00;;;;;;5057104;28;20964;-83
2022/06/29 05:20:26;;;;;;;2.87;2.77;;;27.70;41.80;;;;;;5057684;28;20435;-82
2022/06/29 05:22:54;;;;;;;3.17;2.97;;;27.70;41.80;;;;;;5038177;28;20448;-82
2022/06/29 05:25:22;;;;;;;3.40;3.10;;;27.70;42.00;;;;;;5037601;28;20458;-82
2022/06/29 05:27:50;;;;;;;3.10;2.90;;;27.70;41.90;;;;;;5037276;28;20441;-82
2022/06/29 05:30:17;;;;;;;4.37;3.00;;;27.80;41.90;;;;;;5037688;28;20497;-83
2022/06/29 05:32:45;;;;;;;3.20;2.90;;;27.70;41.80;;;;;;5037245;28;20550;-82
2022/06/29 05:35:14;;;;;;;3.30;3.00;;;27.70;41.90;;;;;;5050557;28;20457;-83
2022/06/29 05:37:42;;;;;;;3.20;3.10;;;27.80;41.80;;;;;;5057421;28;20413;-82
2022/06/29 05:40:10;;;;;;;3.60;2.67;;;27.80;41.90;;;;;;5057481;28;20413;-82
2022/06/29 05:42:38;;;;;;;3.03;2.93;;;27.80;41.90;;;;;;5058413;28;20446;-81
2022/06/29 05:45:07;;;;;;;3.10;2.77;;;27.80;41.90;;;;;;5057505;28;20411;-83
2022/06/29 05:47:34;;;;;;;3.23;3.00;;;27.80;42.10;;;;;;5057271;28;20451;-83
2022/06/29 05:50:02;;;;;;;4.97;2.90;;;27.80;41.80;;;;;;5057091;28;20420;-83
2022/06/29 05:52:31;;;;;;;3.13;2.97;;;27.80;42.10;;;;;;5056635;28;20482;-83
2022/06/29 05:55:01;;;;;;;2.70;2.60;;;27.80;41.90;;;;;;5036676;28;20470;-83
2022/06/29 05:57:29;;;;;;;3.43;2.50;;;27.80;42.00;;;;;;5036869;28;20474;-82
2022/06/29 05:59:56;;;;;;;2.70;2.60;;;27.80;41.90;;;;;;5036274;28;20505;-82
2022/06/29 06:02:24;;;;;;;3.90;2.93;;;27.80;42.00;;;;;;5036615;28;20542;-83
2022/06/29 06:04:52;;;;;;;3.27;3.07;;;27.80;42.00;;;;;;5036114;28;20444;-83
2022/06/29 06:07:20;;;;;;;3.80;2.70;;;27.80;42.20;;;;;;5040014;28;20512;-83
2022/06/29 06:09:49;;;;;;;3.30;3.00;;;27.80;42.10;;;;;;5056125;28;20525;-83
2022/06/29 06:12:17;;;;;;;3.00;2.87;;;27.80;41.90;;;;;;5056186;28;20459;-82
2022/06/29 06:14:45;;;;;;;3.07;2.90;;;27.90;42.00;;;;;;5056655;28;20533;-82
2022/06/29 06:17:13;;;;;;;2.67;2.40;;;27.80;42.00;;;;;;5054922;28;20443;-79
2022/06/29 06:19:41;;;;;;;2.80;2.70;;;27.90;42.00;;;;;;5055190;28;20467;-81
2022/06/29 06:22:08;;;;;;;3.03;2.90;;;27.90;42.00;;;;;;5054976;28;20455;-82
2022/06/29 06:24:36;;;;;;;6.20;5.70;;;27.90;42.00;;;;;;5058255;28;20680;-84
2022/06/29 06:27:06;;;;;;;14.10;6.90;;;26.90;43.10;;;;;;5058478;28;20473;-83
2022/06/29 06:29:33;;;;;;;6.20;5.70;;;26.10;45.50;;;;;;5059453;28;20427;-83
2022/06/29 06:32:02;;;;;;;6.97;6.30;;;25.70;46.70;;;;;;5058446;28;20494;-83
2022/06/29 06:34:29;;;;;;;9.03;5.30;;;25.20;47.90;;;;;;5058862;28;20429;-83
2022/06/29 06:36:57;;;;;;;5.73;5.23;;;24.80;48.90;;;;;;5058522;28;20485;-83
2022/06/29 06:39:25;;;;;;;6.17;5.57;;;24.80;49.30;;;;;;5059806;28;20495;-83
2022/06/29 06:41:52;;;;;;;6.90;5.07;;;24.80;49.20;;;;;;5058703;28;20429;-83
2022/06/29 06:44:22;;;;;;;5.43;5.03;;;24.60;49.80;;;;;;5058370;28;20444;-83
2022/06/29 06:46:50;;;;;;;5.47;4.97;;;24.60;50.40;;;;;;5058595;28;20441;-83
2022/06/29 06:49:22;;;;;;;4.80;4.20;;;24.70;50.50;;;;;;5058461;28;20458;-82
2022/06/29 06:51:51;;;;;;;5.90;4.90;;;24.70;50.40;;;;;;5057801;28;20506;-83
2022/06/29 06:54:19;;;;;;;8.43;7.63;;;24.80;50.60;;;;;;5058123;28;20446;-82
2022/06/29 06:56:47;;;;;;;6.10;5.50;;;24.60;51.30;;;;;;5056632;28;20504;-83
2022/06/29 06:59:15;;;;;;;8.63;6.57;;;24.50;51.50;;;;;;5071891;28;20413;-83
2022/06/29 07:01:44;;;;;;;9.50;5.60;;;24.90;51.70;;;;;;5068129;28;20447;-82
2022/06/29 07:04:16;;;;;;;7.40;5.37;;;24.70;51.50;;;;;;5079809;28;20499;-84
2022/06/29 07:06:44;;;;;;;6.53;5.40;;;24.80;50.90;;;;;;5081263;28;20424;-84
2022/06/29 07:09:12;;;;;;;10.07;6.87;;;24.90;51.80;;;;;;5081287;28;20911;-86
2022/06/29 07:11:40;;;;;;;7.03;5.20;;;25.30;51.30;;;;;;5078233;28;20515;-84
2022/06/29 07:14:08;;;;;;;4.90;4.57;;;25.50;51.70;;;;;;5051352;28;20547;-83
2022/06/29 07:16:36;;;;;;;6.20;4.90;;;25.40;50.90;;;;;;5040959;28;21005;-82
2022/06/29 07:19:05;;;;;;;5.97;5.37;;;25.40;52.20;;;;;;5043451;28;20485;-84
2022/06/29 07:21:33;;;;;;;5.17;4.70;;;25.50;51.40;;;;;;5047596;28;20438;-85
2022/06/29 07:24:01;;;;;;;7.53;4.13;;;25.70;51.00;;;;;;5044247;28;20437;-84
2022/06/29 07:26:29;;;;;;;6.33;4.57;;;25.90;50.40;;;;;;5059743;28;20516;-85
2022/06/29 07:28:57;;;;;;;5.50;5.10;;;26.00;49.20;;;;;;5083595;28;20461;-86
2022/06/29 07:31:24;;;;;;;4.90;4.30;;;26.20;49.50;;;;;;5071330;28;20480;-84
2022/06/29 07:33:52;;;;;;;3.70;3.50;;;26.40;49.50;;;;;;5052575;28;20473;-85
2022/06/29 07:36:22;;;;;;;3.70;3.40;;;26.60;48.90;;;;;;5045328;28;20461;-85
2022/06/29 07:38:49;;;;;;;3.40;3.20;;;26.80;48.40;;;;;;5044054;28;20475;-85
2022/06/29 07:41:17;;;;;;;3.63;3.33;;;26.80;48.60;;;;;;5043994;28;20473;-85
2022/06/29 07:43:46;;;;;;;7.50;3.20;;;26.90;47.80;;;;;;5053187;28;20429;-84
2022/06/29 07:46:13;;;;;;;4.57;4.27;;;27.00;47.40;;;;;;5064302;28;20427;-85
2022/06/29 07:48:41;;;;;;;3.93;3.57;;;26.70;47.80;;;;;;5057964;28;20433;-85
2022/06/29 07:51:09;;;;;;;10.30;3.90;;;26.90;48.00;;;;;;5068789;28;20520;-84
2022/06/29 07:53:38;;;;;;;4.97;4.57;;;26.70;49.00;;;;;;5061337;28;20466;-83
2022/06/29 07:56:09;;;;;;;3.70;3.50;;;26.90;48.30;;;;;;5059845;28;20437;-82
2022/06/29 07:58:37;;;;;;;3.30;3.10;;;26.80;49.20;;;;;;5062245;28;20508;-86
2022/06/29 08:01:10;;;;;;;3.50;3.30;;;27.10;48.40;;;;;;5051265;28;20446;-85
2022/06/29 08:03:40;;;;;;;3.40;3.10;;;27.10;48.50;;;;;;5054368;28;20446;-85
2022/06/29 08:06:10;;;;;;;3.37;3.13;;;27.40;48.40;;;;;;5051846;28;20505;-86
2022/06/29 08:08:40;;;;;;;3.77;3.57;;;27.60;47.80;;;;;;5044631;28;20421;-85
2022/06/29 08:11:09;;;;;;;3.60;3.40;;;27.60;47.40;;;;;;5039757;28;20531;-85
2022/06/29 08:13:38;;;;;;;3.33;3.10;;;27.70;47.60;;;;;;5040530;28;20566;-85
2022/06/29 08:16:07;;;;;;;6.00;3.30;;;27.90;47.10;;;;;;5045069;28;20465;-86
2022/06/29 08:18:37;;;;;;;3.90;3.57;;;28.00;46.80;;;;;;5057278;28;20466;-85
2022/06/29 08:21:05;;;;;;;4.40;4.00;;;28.10;46.50;;;;;;5054704;28;20446;-85
2022/06/29 08:23:33;;;;;;;4.77;4.03;;;28.10;46.20;;;;;;5046412;28;20490;-85
2022/06/29 08:26:03;;;;;;;3.33;3.13;;;28.00;46.60;;;;;;5044502;28;20470;-86
2022/06/29 08:28:51;;;;;;;3.20;3.10;;;28.00;46.70;;;;;;5060744;28;20409;-86
2022/06/29 08:31:19;;;;;;;5.00;3.67;;;28.00;46.70;;;;;;5063789;28;20447;-86
2022/06/29 08:33:47;;;;;;;4.23;3.30;;;27.80;47.30;;;;;;5057646;28;20453;-85
2022/06/29 08:36:15;;;;;;;3.63;3.43;;;27.90;47.20;;;;;;5051915;28;20453;-85
2022/06/29 08:39:04;;;;;;;3.40;3.30;;;27.80;47.40;;;;;;5053640;28;20416;-86
2022/06/29 08:41:33;;;;;;;4.07;3.70;;;28.10;47.00;;;;;;5060776;28;20424;-85
2022/06/29 08:44:01;;;;;;;4.93;4.53;;;28.20;46.60;;;;;;5044032;28;20448;-85
2022/06/29 08:46:29;;;;;;;4.70;4.40;;;28.30;46.50;;;;;;5063975;28;20933;-85
2022/06/29 08:48:57;;;;;;;3.60;3.30;;;28.50;45.50;;;;;;5061671;28;20446;-85
2022/06/29 08:51:25;;;;;;;3.90;3.70;;;28.50;45.40;;;;;;5057424;28;20485;-85
2022/06/29 08:53:53;;;;;;;3.40;3.20;;;28.40;46.30;;;;;;5059805;28;20449;-86
2022/06/29 08:56:21;;;;;;;3.80;3.20;;;28.60;45.80;;;;;;5065584;28;20465;-85
2022/06/29 08:58:51;;;;;;;3.57;3.27;;;28.70;46.10;;;;;;5051234;28;20532;-85
2022/06/29 09:01:19;;;;;;;3.20;3.00;;;28.60;45.60;;;;;;5045022;28;20453;-86
2022/06/29 09:03:48;;;;;;;4.50;3.40;;;28.70;45.50;;;;;;5045343;28;20495;-85
2022/06/29 09:06:16;;;;;;;3.63;3.43;;;28.50;46.40;;;;;;5043330;28;20446;-86
2022/06/29 09:08:44;;;;;;;3.27;2.97;;;28.80;46.60;;;;;;5057439;28;20493;-85
2022/06/29 09:11:22;;;;;;;3.10;2.93;;;28.90;45.10;;;;;;5054620;28;20482;-86
2022/06/29 09:14:08;;;;;;;4.80;3.10;;;29.10;45.00;;;;;;5059594;28;20475;-84
2022/06/29 09:16:56;;;;;;;3.60;3.40;;;29.20;44.80;;;;;;5056943;28;20413;-85
2022/06/29 09:19:27;;;;;;;3.90;3.60;;;29.30;44.60;;;;;;5049791;28;20519;-85
2022/06/29 09:21:58;;;;;;;3.50;3.30;;;29.30;44.00;;;;;;5049242;28;20512;-84
2022/06/29 09:24:28;;;;;;;3.50;3.30;;;29.30;43.80;;;;;;5049315;28;20419;-83
2022/06/29 09:26:56;;;;;;;4.30;4.00;;;29.20;43.80;;;;;;5049891;28;20461;-84
2022/06/29 09:29:27;;;;;;;4.53;3.13;;;29.40;44.00;;;;;;5049377;28;20397;-85
2022/06/29 09:32:19;;;;;;;3.17;2.90;;;29.60;43.60;;;;;;5051014;28;20544;-83
2022/06/29 09:34:48;;;;;;;4.37;3.50;;;29.80;43.10;;;;;;5044635;28;20570;-83
2022/06/29 09:37:17;;;;;;;3.87;3.60;;;29.60;43.80;;;;;;5040179;28;20854;-84
2022/06/29 09:39:46;;;;;;;9.57;8.70;;;29.30;44.10;;;;;;5039324;28;20530;-84
2022/06/29 09:42:14;;;;;;;5.70;5.17;;;29.70;43.10;;;;;;5044361;28;20562;-84
2022/06/29 09:44:45;;;;;;;4.80;4.50;;;29.80;42.80;;;;;;5046039;28;20490;-82
2022/06/29 09:47:15;;;;;;;4.30;4.10;;;30.20;42.60;;;;;;5046653;28;20478;-83
2022/06/29 09:49:44;;;;;;;5.20;4.80;;;30.20;42.50;;;;;;5048355;28;20581;-83
2022/06/29 09:52:12;;;;;;;4.40;4.00;;;29.10;42.70;;;;;;5048027;28;20525;-82
2022/06/29 09:54:42;;;;;;;4.50;4.20;;;29.10;44.50;;;;;;5049255;28;20487;-82
2022/06/29 09:57:11;;;;;;;3.90;3.60;;;29.60;44.60;;;;;;5047366;28;20467;-82
2022/06/29 10:02:42;;;;;;;3.70;3.50;;;30.00;42.90;;;;;;5058424;28;20458;-83
2022/06/29 10:05:11;;;;;;;4.30;3.90;;;30.10;43.00;;;;;;5059127;28;20422;-84
2022/06/29 10:07:40;;;;;;;3.80;3.60;;;30.30;42.40;;;;;;5058054;28;20450;-83
2022/06/29 10:10:09;;;;;;;3.30;3.10;;;30.30;42.90;;;;;;5058784;28;20492;-83
2022/06/29 10:16:02;;;;;;;3.63;3.13;;;30.90;41.60;;;;;;5057961;28;20442;-84
2022/06/29 10:18:41;;;;;;;3.33;3.23;;;31.10;41.10;;;;;;5057704;28;20449;-83
2022/06/29 10:21:13;;;;;;;3.60;3.50;;;31.10;40.80;;;;;;5056246;28;20823;-84
2022/06/29 10:23:45;;;;;;;3.60;3.13;;;31.30;41.40;;;;;;5052917;28;20541;-83
2022/06/29 10:26:43;;;;;;;3.50;3.30;;;31.50;40.60;;;;;;5056101;28;20444;-84
2022/06/29 10:29:32;;;;;;;3.87;3.67;;;31.50;40.60;;;;;;5045032;28;20443;-82
2022/06/29 10:32:14;;;;;;;4.37;4.13;;;31.70;41.10;;;;;;5044541;28;20506;-84
2022/06/29 10:37:25;;;;;;;4.43;4.13;;;31.80;40.30;;;;;;5045325;28;20534;-82
2022/06/29 10:39:53;;;;;;;4.50;4.20;;;31.60;39.60;;;;;;5045413;28;20465;-83
2022/06/29 10:45:26;;;;;;;4.10;3.90;;;31.50;40.20;;;;;;5054553;28;20865;-83
2022/06/29 10:48:24;;;;;;;5.10;4.80;;;31.90;39.40;;;;;;5051868;28;20455;-83
2022/06/29 10:50:53;;;;;;;5.10;4.70;;;31.60;38.80;;;;;;5056618;28;20438;-82
2022/06/29 10:53:22;;;;;;;4.87;4.60;;;31.60;39.10;;;;;;5057646;28;20463;-82
2022/06/29 10:55:51;;;;;;;4.00;3.80;;;32.00;38.20;;;;;;5053972;28;20483;-82
2022/06/29 10:58:20;;;;;;;4.20;3.90;;;32.10;38.90;;;;;;5056979;28;20435;-82
2022/06/29 11:00:50;;;;;;;4.30;4.10;;;32.00;38.80;;;;;;5054062;28;20455;-82
2022/06/29 11:03:19;;;;;;;4.60;4.20;;;31.90;37.90;;;;;;5045015;28;20451;-82
2022/06/29 11:17:02;;;;;;;4.13;3.70;;;33.20;37.90;;;;;;5045451;28;20494;-82
2022/06/29 11:19:32;;;;;;;4.40;4.10;;;32.60;35.80;;;;;;5050825;28;20882;-83
2022/06/29 11:22:15;;;;;;;3.80;3.60;;;32.60;35.90;;;;;;5057482;28;20457;-82
2022/06/29 11:24:54;;;;;;;3.60;3.40;;;33.10;36.30;;;;;;5054460;28;20451;-82
2022/06/29 11:27:38;;;;;;;3.87;3.67;;;33.50;35.00;;;;;;5047543;28;20511;-82
2022/06/29 11:30:08;;;;;;;3.50;3.40;;;33.60;35.90;;;;;;5047341;28;20457;-82
2022/06/29 11:32:40;;;;;;;3.47;3.37;;;33.00;34.00;;;;;;5045660;28;20463;-82
2022/06/29 11:35:08;;;;;;;3.90;3.70;;;33.00;34.40;;;;;;5045317;28;20514;-82
2022/06/29 11:37:45;;;;;;;4.30;3.63;;;33.00;34.80;;;;;;5046513;28;20491;-82
2022/06/29 11:40:14;;;;;;;3.60;3.50;;;32.90;35.00;;;;;;5044973;28;20455;-83
2022/06/29 11:45:39;;;;;;;5.83;3.90;;;32.00;34.90;;;;;;5050252;28;20449;-82
2022/06/29 11:48:14;;;;;;;4.40;4.00;;;31.50;36.50;;;;;;5037787;28;20514;-82
2022/06/29 11:50:43;;;;;;;4.30;3.87;;;31.50;37.60;;;;;;5035503;28;20483;-84
2022/06/29 11:53:11;;;;;;;4.10;3.90;;;32.70;37.40;;;;;;5037048;28;20463;-83
2022/06/29 11:55:41;;;;;;;4.27;3.80;;;33.50;35.50;;;;;;5031187;28;20479;-83
2022/06/29 11:58:12;;;;;;;6.07;4.43;;;34.30;34.50;;;;;;5036153;28;20427;-83
2022/06/29 12:00:40;;;;;;;4.30;3.90;;;33.00;33.80;;;;;;5048658;28;20458;-83
2022/06/29 12:03:08;;;;;;;4.77;4.47;;;32.70;36.10;;;;;;5046091;28;20538;-83
2022/06/29 12:05:37;;;;;;;4.40;4.20;;;32.30;35.30;;;;;;5056253;28;20470;-83
2022/06/29 12:08:05;;;;;;;4.50;4.20;;;32.10;37.40;;;;;;5059431;28;20476;-83
2022/06/29 12:10:33;;;;;;;5.60;4.60;;;33.50;36.30;;;;;;5058737;28;20446;-83
2022/06/29 12:13:02;;;;;;;4.13;3.93;;;34.00;33.80;;;;;;5058471;28;20537;-83
2022/06/29 12:15:30;;;;;;;4.73;4.27;;;35.00;33.00;;;;;;5058066;28;20473;-81
2022/06/29 12:17:58;;;;;;;4.73;4.10;;;35.50;32.60;;;;;;5046710;28;20475;-80
2022/06/29 12:20:26;;;;;;;4.10;3.70;;;35.90;31.80;;;;;;5038297;28;20511;-83
2022/06/29 12:23:05;;;;;;;5.77;3.50;;;36.40;31.00;;;;;;5038680;28;20546;-83
2022/06/29 12:25:35;;;;;;;3.57;3.37;;;35.70;29.60;;;;;;5038301;28;20432;-83
2022/06/29 12:28:05;;;;;;;3.80;3.50;;;34.20;31.00;;;;;;5038477;28;20448;-82
2022/06/29 12:30:32;;;;;;;3.53;3.37;;;33.50;31.90;;;;;;5037868;28;20526;-82
2022/06/29 12:33:00;;;;;;;3.40;3.30;;;33.60;32.10;;;;;;5050139;28;20555;-82
2022/06/29 12:35:28;;;;;;;4.50;4.20;;;33.90;32.80;;;;;;5053395;28;20470;-83
2022/06/29 12:37:57;;;;;;;3.77;3.47;;;34.30;32.30;;;;;;5058687;28;20439;-82
2022/06/29 12:40:25;;;;;;;3.53;3.40;;;35.20;31.80;;;;;;5057999;28;20465;-83
2022/06/29 12:42:53;;;;;;;4.60;3.47;;;35.30;31.60;;;;;;5057677;28;20459;-82
2022/06/29 12:45:23;;;;;;;4.83;3.87;;;35.10;31.70;;;;;;5058115;28;20473;-82
2022/06/29 12:47:51;;;;;;;3.87;3.57;;;34.50;32.30;;;;;;5058202;28;20441;-82
2022/06/29 12:50:19;;;;;;;3.07;2.90;;;34.20;32.50;;;;;;5056464;28;20458;-82
2022/06/29 12:52:50;;;;;;;3.80;3.50;;;34.50;32.40;;;;;;5064270;28;20497;-83
2022/06/29 12:55:19;;;;;;;3.80;3.50;;;35.10;31.80;;;;;;5068923;28;20466;-83
2022/06/29 12:57:47;;;;;;;3.17;3.07;;;35.50;32.00;;;;;;5077972;28;20533;-83
2022/06/29 13:00:15;;;;;;;6.00;3.23;;;35.70;31.50;;;;;;5077024;28;20434;-83
2022/06/29 13:02:44;;;;;;;3.63;3.33;;;35.20;31.30;;;;;;5077164;28;20446;-83
2022/06/29 13:05:12;;;;;;;3.97;3.67;;;34.40;31.30;;;;;;5077810;28;20441;-82
2022/06/29 13:07:40;;;;;;;4.90;3.70;;;34.80;31.70;;;;;;5057565;28;20458;-82
2022/06/29 13:10:08;;;;;;;3.97;3.70;;;34.70;31.80;;;;;;5050847;28;20450;-83
2022/06/29 13:12:36;;;;;;;3.60;3.40;;;34.50;32.30;;;;;;5056934;28;20462;-82
2022/06/29 13:15:05;;;;;;;3.30;3.20;;;34.80;32.60;;;;;;5056891;28;20472;-83
2022/06/29 13:17:33;;;;;;;4.53;4.23;;;35.00;32.60;;;;;;5057664;28;20533;-82
2022/06/29 13:20:06;;;;;;;4.60;3.13;;;34.80;32.40;;;;;;5057138;28;20434;-82
2022/06/29 13:22:34;;;;;;;4.03;3.30;;;34.40;33.20;;;;;;5057702;28;20462;-82
2022/06/29 13:25:01;;;;;;;4.27;3.77;;;33.30;33.70;;;;;;5051625;28;20487;-82
2022/06/29 13:27:29;;;;;;;3.40;3.30;;;33.40;34.10;;;;;;5053336;28;20462;-83
2022/06/29 13:29:58;;;;;;;3.40;3.20;;;33.20;34.60;;;;;;5057465;28;20465;-83
2022/06/29 13:32:26;;;;;;;3.40;3.20;;;33.30;34.80;;;;;;5056732;28;20462;-82